createdAt,value
2023-05-11T00:02:31.048Z,39.53
2023-05-11T00:05:04.016Z,39.49
2023-05-11T00:07:36.972Z,39.46
2023-05-11T00:10:12.094Z,39.49
2023-05-11T00:12:44.919Z,39.76
2023-05-11T00:15:17.841Z,39.74
2023-05-11T00:17:50.961Z,39.88
2023-05-11T00:20:23.937Z,40.01
2023-05-11T00:22:56.787Z,40.02
2023-05-11T00:25:31.320Z,40.01
2023-05-11T00:28:04.253Z,40.07
2023-05-11T00:30:37.146Z,40.27
2023-05-11T00:33:10.234Z,40.31
2023-05-11T00:35:43.966Z,40.33
2023-05-11T00:38:16.969Z,40.54
2023-05-11T00:40:51.445Z,40.57
2023-05-11T00:43:24.253Z,40.83
2023-05-11T00:45:57.254Z,40.90
2023-05-11T00:48:30.233Z,40.74
2023-05-11T00:51:04.761Z,41.02
2023-05-11T00:53:37.965Z,40.99
2023-05-11T00:56:13.105Z,41.15
2023-05-11T00:58:46.003Z,41.21
2023-05-11T01:01:19.134Z,41.13
2023-05-11T01:03:55.311Z,41.18
2023-05-11T01:06:33.129Z,41.22
2023-05-11T01:09:10.898Z,41.47
2023-05-11T01:11:52.232Z,41.22
2023-05-11T01:14:31.229Z,41.49
2023-05-11T01:17:13.365Z,41.50
2023-05-11T01:19:53.984Z,41.72
2023-05-11T01:22:39.437Z,41.69
2023-05-11T01:25:25.644Z,41.77
2023-05-11T01:28:16.492Z,41.76
2023-05-11T01:30:53.013Z,41.79
2023-05-11T01:33:32.276Z,41.93
2023-05-11T01:36:10.053Z,42.08
2023-05-11T01:38:47.647Z,42.17
2023-05-11T01:41:23.488Z,42.12
2023-05-11T01:44:01.610Z,42.13
2023-05-11T01:46:36.770Z,42.22
2023-05-11T01:49:11.764Z,42.42
2023-05-11T01:51:49.512Z,42.35
2023-05-11T01:54:26.159Z,42.52
2023-05-11T01:57:01.518Z,42.54
2023-05-11T01:59:36.954Z,42.67
2023-05-11T02:02:12.447Z,42.78
2023-05-11T02:04:47.010Z,42.73
2023-05-11T02:07:21.445Z,42.67
2023-05-11T02:09:57.670Z,42.63
2023-05-11T02:12:33.738Z,42.74
2023-05-11T02:15:09.679Z,42.89
2023-05-11T02:17:44.972Z,42.85
2023-05-11T02:20:19.716Z,42.81
2023-05-11T02:22:54.625Z,42.71
2023-05-11T02:25:29.775Z,42.96
2023-05-11T02:28:02.944Z,42.72
2023-05-11T02:30:45.768Z,42.89
2023-05-11T02:33:23.021Z,43.02
2023-05-11T02:35:57.635Z,43.08
2023-05-11T02:38:35.720Z,42.90
2023-05-11T02:41:17.059Z,43.13
2023-05-11T02:43:53.222Z,43.16
2023-05-11T02:46:30.889Z,43.14
2023-05-11T02:49:08.815Z,43.20
2023-05-11T02:51:45.939Z,43.15
2023-05-11T02:54:20.692Z,43.29
2023-05-11T02:56:57.353Z,43.18
2023-05-11T02:59:32.004Z,43.34
2023-05-11T03:02:05.229Z,43.25
2023-05-11T03:04:39.798Z,43.34
2023-05-11T03:07:12.700Z,43.42
2023-05-11T03:09:45.813Z,43.52
2023-05-11T03:12:18.985Z,43.29
2023-05-11T03:14:53.423Z,43.39
2023-05-11T03:17:26.738Z,43.49
2023-05-11T03:20:03.712Z,43.70
2023-05-11T03:22:38.493Z,43.49
2023-05-11T03:25:13.216Z,43.59
2023-05-11T03:27:47.394Z,43.68
2023-05-11T03:30:23.777Z,43.61
2023-05-11T03:32:59.865Z,43.52
2023-05-11T03:35:36.009Z,43.57
2023-05-11T03:38:11.730Z,43.75
2023-05-11T03:40:45.957Z,43.72
2023-05-11T03:43:20.362Z,43.68
2023-05-11T03:45:55.106Z,43.74
2023-05-11T03:48:29.750Z,43.38
2023-05-11T03:51:06.212Z,43.34
2023-05-11T03:53:39.559Z,43.37
2023-05-11T03:56:12.447Z,43.28
2023-05-11T03:58:45.901Z,43.24
2023-05-11T04:01:18.932Z,43.05
2023-05-11T04:03:54.598Z,42.91
2023-05-11T04:06:31.497Z,42.88
2023-05-11T04:09:14.856Z,42.72
2023-05-11T04:11:47.717Z,42.59
2023-05-11T04:14:20.693Z,42.41
2023-05-11T04:16:53.987Z,42.21
2023-05-11T04:19:26.797Z,42.33
2023-05-11T04:22:02.398Z,42.04
2023-05-11T04:24:36.386Z,42.13
2023-05-11T04:27:09.363Z,41.89
2023-05-11T04:29:45.040Z,41.53
2023-05-11T04:32:17.908Z,41.46
2023-05-11T04:34:51.016Z,41.48
2023-05-11T04:37:29.330Z,41.58
2023-05-11T04:40:04.250Z,41.10
2023-05-11T04:42:41.961Z,40.86
2023-05-11T04:45:20.192Z,40.58
2023-05-11T04:47:53.174Z,40.20
2023-05-11T04:50:26.281Z,40.04
2023-05-11T04:53:01.050Z,39.56
2023-05-11T04:55:34.201Z,39.36
2023-05-11T04:58:07.116Z,39.39
2023-05-11T05:00:40.056Z,39.17
2023-05-11T05:03:12.995Z,38.95
2023-05-11T05:05:45.858Z,38.94
2023-05-11T05:08:21.547Z,38.67
2023-05-11T05:10:54.884Z,38.46
2023-05-11T05:13:27.872Z,38.13
2023-05-11T05:16:00.735Z,38.16
2023-05-11T05:18:33.871Z,37.88
2023-05-11T05:21:07.085Z,37.54
2023-05-11T05:23:41.324Z,37.17
2023-05-11T05:26:14.384Z,37.12
2023-05-11T05:28:47.307Z,36.63
2023-05-11T05:31:20.895Z,36.35
2023-05-11T05:33:53.818Z,36.09
2023-05-11T05:36:26.675Z,35.92
2023-05-11T05:39:00.930Z,35.49
2023-05-11T05:41:33.779Z,35.45
2023-05-11T05:44:07.349Z,34.83
2023-05-11T05:46:40.564Z,34.40
2023-05-11T05:49:13.526Z,34.33
2023-05-11T05:51:46.444Z,33.71
2023-05-11T05:54:20.654Z,33.45
2023-05-11T05:56:53.653Z,33.40
2023-05-11T05:59:27.295Z,32.99
2023-05-11T06:02:02.972Z,32.64
2023-05-11T06:04:36.487Z,32.88
2023-05-11T06:07:09.620Z,32.19
2023-05-11T06:09:43.860Z,32.23
2023-05-11T06:12:16.743Z,31.71
2023-05-11T06:14:54.458Z,31.97
2023-05-11T06:17:28.546Z,31.59
2023-05-11T06:20:01.499Z,30.63
2023-05-11T06:22:37.118Z,30.20
2023-05-11T06:25:12.280Z,30.17
2023-05-11T06:27:46.427Z,29.67
2023-05-11T06:30:19.993Z,29.38
2023-05-11T06:32:54.962Z,29.44
2023-05-11T06:35:28.092Z,29.32
2023-05-11T06:38:00.981Z,29.21
2023-05-11T06:40:35.611Z,28.82
2023-05-11T06:43:08.677Z,28.17
2023-05-11T06:45:51.425Z,28.13
2023-05-11T06:48:25.929Z,27.36
2023-05-11T06:50:58.863Z,27.03
2023-05-11T06:53:31.747Z,27.12
2023-05-11T06:56:06.824Z,26.70
2023-05-11T06:58:39.814Z,26.17
2023-05-11T07:01:13.066Z,26.62
2023-05-11T07:03:48.865Z,26.15
2023-05-11T07:06:21.874Z,26.10
2023-05-11T07:08:54.840Z,25.64
2023-05-11T07:11:29.174Z,25.54
2023-05-11T07:14:02.055Z,25.35
2023-05-11T07:16:38.019Z,25.44
2023-05-11T07:19:11.094Z,25.35
2023-05-11T07:21:44.283Z,24.90
2023-05-11T07:24:17.256Z,24.91
2023-05-11T07:26:51.991Z,24.73
2023-05-11T07:29:24.946Z,24.92
2023-05-11T07:31:58.033Z,24.64
2023-05-11T07:34:31.011Z,24.65
2023-05-11T07:37:04.087Z,24.56
2023-05-11T07:39:37.034Z,24.58
2023-05-11T07:42:11.396Z,24.11
2023-05-11T07:44:44.297Z,24.12
2023-05-11T07:47:19.016Z,24.12
2023-05-11T07:49:51.979Z,24.24
2023-05-11T07:52:24.835Z,23.71
2023-05-11T07:54:59.663Z,23.83
2023-05-11T07:57:33.913Z,23.79
2023-05-11T08:00:10.917Z,23.59
2023-05-11T08:02:47.126Z,23.43
2023-05-11T08:05:21.258Z,23.45
2023-05-11T08:07:54.300Z,23.21
2023-05-11T08:10:27.193Z,23.11
2023-05-11T08:13:01.407Z,23.17
2023-05-11T08:15:34.817Z,22.83
2023-05-11T08:18:07.883Z,22.98
2023-05-11T08:20:42.197Z,22.71
2023-05-11T08:23:18.074Z,22.68
2023-05-11T08:25:52.568Z,22.36
2023-05-11T08:28:26.819Z,22.14
2023-05-11T08:31:00.576Z,21.22
2023-05-11T08:33:38.156Z,20.93
2023-05-11T08:36:13.273Z,20.83
2023-05-11T08:38:46.247Z,19.21
2023-05-11T08:41:19.211Z,17.58
2023-05-11T08:43:53.911Z,16.98
2023-05-11T08:46:31.822Z,15.79
2023-05-11T08:49:04.739Z,15.54
2023-05-11T08:51:37.662Z,14.65
2023-05-11T08:54:10.657Z,15.22
2023-05-11T08:56:44.719Z,13.71
2023-05-11T08:59:19.814Z,13.20
2023-05-11T09:01:53.903Z,12.56
2023-05-11T09:04:27.748Z,12.55
2023-05-11T09:07:01.219Z,12.12
2023-05-11T09:09:34.928Z,11.90
2023-05-11T09:12:09.357Z,11.43
2023-05-11T09:14:43.939Z,11.04
2023-05-11T09:17:17.185Z,10.30
2023-05-11T09:20:05.499Z,10.03
2023-05-11T09:22:43.272Z,10.21
2023-05-11T09:25:17.994Z,10.13
2023-05-11T09:27:51.448Z,9.52
2023-05-11T09:30:25.995Z,9.85
2023-05-11T09:33:00.580Z,9.95
2023-05-11T09:35:35.601Z,9.79
2023-05-11T09:38:10.598Z,9.54
2023-05-11T09:40:52.196Z,9.50
2023-05-11T09:43:26.981Z,9.15
2023-05-11T09:46:04.182Z,9.06
2023-05-11T09:48:37.766Z,8.83
2023-05-11T09:51:10.793Z,8.95
2023-05-11T09:53:46.024Z,8.45
2023-05-11T09:56:19.448Z,8.57
2023-05-11T09:58:54.446Z,8.79
2023-05-11T10:01:33.445Z,8.75
2023-05-11T10:04:22.194Z,8.59
2023-05-11T10:06:57.049Z,8.44
2023-05-11T10:09:29.959Z,8.60
2023-05-11T10:12:04.175Z,9.04
2023-05-11T10:14:37.284Z,8.58
2023-05-11T10:17:12.623Z,8.71
2023-05-11T10:19:45.828Z,8.54
2023-05-11T10:22:19.628Z,8.94
2023-05-11T10:24:53.083Z,8.69
2023-05-11T10:27:26.664Z,9.46
2023-05-11T10:30:00.283Z,8.76
2023-05-11T10:32:38.024Z,8.29
2023-05-11T10:35:11.323Z,8.75
2023-05-11T10:37:44.379Z,10.25
2023-05-11T10:40:17.798Z,10.15
2023-05-11T10:43:24.333Z,11.04
2023-05-11T10:46:09.811Z,11.88
2023-05-11T10:49:11.114Z,11.90
2023-05-11T10:52:13.094Z,12.60
2023-05-11T10:55:23.077Z,12.84
2023-05-11T10:58:07.554Z,13.27
2023-05-11T11:01:16.513Z,14.38
2023-05-11T11:04:02.997Z,14.43
2023-05-11T11:06:37.433Z,14.75
2023-05-11T11:09:13.378Z,15.45
2023-05-11T11:11:48.148Z,15.20
2023-05-11T11:14:21.110Z,15.90
2023-05-11T11:17:27.290Z,15.97
2023-05-11T11:20:02.416Z,17.17
2023-05-11T11:22:49.489Z,16.98
2023-05-11T11:25:54.800Z,17.48
2023-05-11T11:28:28.172Z,17.58
2023-05-11T11:31:26.725Z,17.67
2023-05-11T11:34:20.493Z,18.07
2023-05-11T11:37:05.271Z,18.58
2023-05-11T11:40:00.322Z,17.95
2023-05-11T11:42:41.700Z,18.34
2023-05-11T11:45:32.391Z,18.25
2023-05-11T11:48:16.423Z,19.26
2023-05-11T11:50:50.192Z,18.92
2023-05-11T11:54:08.952Z,19.16
2023-05-11T11:56:47.172Z,19.26
2023-05-11T11:59:20.190Z,18.79
2023-05-11T12:01:56.306Z,19.19
2023-05-11T12:04:42.039Z,19.04
2023-05-11T12:07:17.060Z,19.47
2023-05-11T12:09:52.902Z,20.69
2023-05-11T12:12:28.200Z,20.52
2023-05-11T12:15:02.426Z,20.24
2023-05-11T12:17:39.932Z,19.94
2023-05-11T12:20:15.025Z,20.86
2023-05-11T12:22:49.325Z,21.08
2023-05-11T12:25:22.856Z,21.06
2023-05-11T12:28:01.126Z,20.41
2023-05-11T12:30:35.410Z,20.68
2023-05-11T12:33:09.398Z,21.17
2023-05-11T12:35:44.935Z,20.86
2023-05-11T12:38:17.800Z,21.85
2023-05-11T12:40:52.758Z,21.59
2023-05-11T12:43:27.109Z,21.73
2023-05-11T12:46:00.205Z,21.79
2023-05-11T12:48:33.262Z,22.17
2023-05-11T12:51:06.278Z,21.73
2023-05-11T12:53:42.083Z,21.84
2023-05-11T12:56:14.900Z,21.62
2023-05-11T12:58:49.328Z,21.67
2023-05-11T13:01:26.335Z,21.92
2023-05-11T13:03:59.496Z,22.34
2023-05-11T13:06:33.396Z,22.65
2023-05-11T13:09:06.359Z,23.09
2023-05-11T13:11:39.294Z,23.35
2023-05-11T13:14:18.204Z,22.45
2023-05-11T13:16:54.844Z,22.48
2023-05-11T13:19:29.779Z,22.38
2023-05-11T13:22:02.687Z,22.69
2023-05-11T13:24:35.610Z,22.52
2023-05-11T13:27:08.439Z,22.62
2023-05-11T13:29:42.746Z,22.37
2023-05-11T13:32:15.764Z,22.53
2023-05-11T13:34:48.765Z,22.37
2023-05-11T13:37:22.011Z,22.43
2023-05-11T13:39:56.619Z,22.89
2023-05-11T13:42:54.658Z,23.10
2023-05-11T13:45:39.230Z,23.66
2023-05-11T13:48:12.291Z,23.32
2023-05-11T13:50:47.680Z,23.47
2023-05-11T13:53:22.617Z,23.08
2023-05-11T13:55:57.865Z,22.94
2023-05-11T13:58:35.291Z,23.47
2023-05-11T14:01:09.637Z,24.33
2023-05-11T14:03:42.659Z,23.82
2023-05-11T14:06:18.469Z,23.53
2023-05-11T14:08:53.770Z,23.47
2023-05-11T14:11:26.804Z,23.33
2023-05-11T14:13:59.654Z,23.46
2023-05-11T14:16:33.867Z,23.71
2023-05-11T14:19:12.815Z,23.50
2023-05-11T14:21:45.806Z,23.71
2023-05-11T14:24:18.727Z,23.67
2023-05-11T14:26:51.657Z,23.73
2023-05-11T14:29:24.644Z,23.87
2023-05-11T14:31:58.869Z,23.65
2023-05-11T14:34:31.763Z,23.66
2023-05-11T14:37:04.772Z,23.46
2023-05-11T14:39:37.688Z,23.45
2023-05-11T14:42:11.609Z,23.68
2023-05-11T14:44:44.594Z,23.55
2023-05-11T14:47:18.868Z,23.76
2023-05-11T14:49:51.776Z,23.67
2023-05-11T14:52:24.661Z,23.58
2023-05-11T14:54:57.609Z,23.49
2023-05-11T14:57:30.536Z,24.00
2023-05-11T15:00:03.624Z,23.97
2023-05-11T15:02:38.179Z,23.74
2023-05-11T15:05:11.524Z,23.92
2023-05-11T15:07:44.352Z,23.80
2023-05-11T15:10:19.769Z,23.69
2023-05-11T15:12:52.796Z,23.62
2023-05-11T15:15:25.908Z,23.86
2023-05-11T15:18:00.158Z,23.61
2023-05-11T15:20:34.616Z,23.44
2023-05-11T15:23:08.958Z,23.41
2023-05-11T15:25:41.837Z,23.35
2023-05-11T15:28:15.251Z,23.92
2023-05-11T15:30:49.340Z,23.58
2023-05-11T15:33:24.326Z,24.01
2023-05-11T15:35:57.139Z,24.24
2023-05-11T15:38:31.003Z,23.82
2023-05-11T15:41:04.481Z,23.87
2023-05-11T15:43:37.172Z,23.80
2023-05-11T15:46:10.065Z,24.10
2023-05-11T15:48:44.401Z,23.88
2023-05-11T15:51:17.369Z,24.49
2023-05-11T15:53:50.216Z,24.18
2023-05-11T15:56:23.654Z,24.16
2023-05-11T15:58:56.350Z,24.10
2023-05-11T16:01:29.298Z,24.13
2023-05-11T16:04:03.728Z,24.29
2023-05-11T16:06:36.837Z,24.43
2023-05-11T16:09:10.463Z,24.58
2023-05-11T16:11:43.596Z,24.53
2023-05-11T16:14:16.646Z,24.74
2023-05-11T16:16:52.588Z,24.69
2023-05-11T16:19:27.175Z,24.73
2023-05-11T16:22:00.057Z,24.77
2023-05-11T16:24:34.504Z,24.66
2023-05-11T16:27:07.762Z,24.72
2023-05-11T16:29:40.986Z,24.57
2023-05-11T16:32:14.385Z,24.89
2023-05-11T16:34:48.461Z,24.36
2023-05-11T16:37:21.113Z,24.40
2023-05-11T16:39:54.004Z,24.59
2023-05-11T16:42:26.891Z,24.90
2023-05-11T16:45:00.129Z,25.21
2023-05-11T16:47:33.121Z,25.26
2023-05-11T16:50:08.303Z,25.47
2023-05-11T16:52:42.267Z,25.49
2023-05-11T16:55:16.131Z,25.07
2023-05-11T16:57:49.162Z,25.18
2023-05-11T17:00:22.430Z,25.40
2023-05-11T17:02:55.570Z,25.16
2023-05-11T17:05:30.260Z,25.36
2023-05-11T17:08:03.355Z,25.51
2023-05-11T17:10:36.669Z,25.58
2023-05-11T17:13:09.562Z,25.79
2023-05-11T17:15:43.014Z,25.77
2023-05-11T17:18:15.941Z,25.36
2023-05-11T17:20:54.547Z,25.63
2023-05-11T17:23:27.508Z,26.08
2023-05-11T17:26:00.387Z,26.06
2023-05-11T17:28:33.325Z,25.98
2023-05-11T17:31:10.088Z,25.96
2023-05-11T17:33:43.700Z,26.03
2023-05-11T17:36:18.678Z,26.16
2023-05-11T17:38:52.087Z,26.11
2023-05-11T17:41:25.029Z,26.35
2023-05-11T17:43:58.020Z,26.49
2023-05-11T17:46:31.212Z,26.77
2023-05-11T17:49:04.296Z,26.75
2023-05-11T17:51:38.615Z,26.91
2023-05-11T17:54:11.871Z,27.12
2023-05-11T17:56:44.767Z,26.96
2023-05-11T17:59:19.769Z,27.19
2023-05-11T18:01:54.006Z,27.33
2023-05-11T18:04:27.219Z,27.37
2023-05-11T18:07:01.639Z,27.23
2023-05-11T18:09:34.531Z,27.45
2023-05-11T18:12:08.845Z,27.41
2023-05-11T18:14:49.337Z,27.53
2023-05-11T18:17:22.354Z,27.74
2023-05-11T18:19:55.328Z,27.60
2023-05-11T18:22:30.871Z,27.90
2023-05-11T18:25:03.790Z,27.88
2023-05-11T18:27:36.753Z,27.93
2023-05-11T18:30:10.754Z,27.90
2023-05-11T18:32:43.710Z,28.14
2023-05-11T18:35:17.024Z,28.27
2023-05-11T18:37:51.661Z,28.12
2023-05-11T18:40:24.603Z,28.35
2023-05-11T18:42:57.621Z,28.35
2023-05-11T18:45:30.817Z,28.33
2023-05-11T18:48:03.892Z,28.57
2023-05-11T18:50:36.929Z,28.53
2023-05-11T18:53:11.095Z,28.64
2023-05-11T18:55:52.622Z,28.93
2023-05-11T18:58:26.401Z,28.80
2023-05-11T19:01:02.014Z,28.82
2023-05-11T19:03:35.438Z,29.07
2023-05-11T19:06:09.094Z,29.28
2023-05-11T19:08:43.217Z,28.91
2023-05-11T19:11:16.568Z,29.19
2023-05-11T19:13:50.464Z,28.85
2023-05-11T19:16:23.480Z,29.10
2023-05-11T19:18:56.888Z,29.34
2023-05-11T19:21:29.911Z,29.54
2023-05-11T19:24:04.200Z,29.65
2023-05-11T19:26:38.385Z,29.66
2023-05-11T19:29:12.244Z,29.83
2023-05-11T19:31:45.266Z,30.05
2023-05-11T19:34:18.327Z,30.15
2023-05-11T19:36:51.666Z,30.06
2023-05-11T19:39:27.800Z,30.27
2023-05-11T19:42:01.294Z,30.40
2023-05-11T19:44:36.576Z,30.48
2023-05-11T19:47:09.555Z,30.55
2023-05-11T19:49:42.664Z,30.59
2023-05-11T19:52:15.871Z,30.58
2023-05-11T19:54:50.288Z,30.80
2023-05-11T19:57:26.396Z,30.69
2023-05-11T20:00:00.450Z,30.91
2023-05-11T20:02:33.754Z,30.86
2023-05-11T20:05:08.057Z,31.03
2023-05-11T20:07:41.035Z,31.07
2023-05-11T20:10:15.340Z,31.16
2023-05-11T20:12:48.314Z,31.23
2023-05-11T20:15:23.313Z,31.29
2023-05-11T20:17:58.473Z,31.48
2023-05-11T20:20:33.632Z,31.52
2023-05-11T20:23:06.515Z,31.63
2023-05-11T20:25:43.879Z,31.65
2023-05-11T20:28:16.844Z,31.86
2023-05-11T20:30:50.095Z,31.96
2023-05-11T20:35:59.091Z,31.95
2023-05-11T20:38:32.657Z,32.09
2023-05-11T20:41:07.684Z,32.06
2023-05-11T20:43:40.508Z,32.21
2023-05-11T20:46:15.212Z,32.23
2023-05-11T20:48:51.792Z,32.26
2023-05-11T20:51:25.193Z,32.33
2023-05-11T20:53:58.181Z,32.32
2023-05-11T20:56:32.388Z,32.58
2023-05-11T20:59:05.364Z,32.72
2023-05-11T21:01:39.413Z,32.79
2023-05-11T21:04:12.354Z,32.92
2023-05-11T21:06:46.520Z,32.83
2023-05-11T21:09:19.409Z,32.98
2023-05-11T21:11:53.711Z,33.10
2023-05-11T21:14:26.623Z,33.14
2023-05-11T21:16:59.660Z,33.27
2023-05-11T21:19:32.577Z,33.39
2023-05-11T21:22:05.589Z,33.45
2023-05-11T21:24:38.685Z,33.47
2023-05-11T21:27:12.928Z,33.54
2023-05-11T21:29:45.884Z,33.54
2023-05-11T21:32:18.745Z,33.58
2023-05-11T21:34:51.612Z,33.58
2023-05-11T21:37:24.508Z,33.63
2023-05-11T21:39:57.425Z,33.71
2023-05-11T21:42:34.716Z,33.70
2023-05-11T21:45:08.977Z,33.81
2023-05-11T21:47:42.122Z,33.74
2023-05-11T21:50:14.988Z,33.93
2023-05-11T21:52:47.920Z,33.85
2023-05-11T21:55:20.953Z,34.03
2023-05-11T21:57:55.226Z,33.95
2023-05-11T22:00:28.328Z,33.96
2023-05-11T22:03:01.533Z,33.95
2023-05-11T22:05:34.456Z,33.96
2023-05-11T22:08:14.933Z,34.05
2023-05-11T22:10:57.431Z,34.11
2023-05-11T22:13:31.652Z,34.11
2023-05-11T22:16:05.357Z,34.10
2023-05-11T22:18:38.324Z,34.13
2023-05-11T22:21:11.684Z,34.07
2023-05-11T22:23:44.587Z,34.19
2023-05-11T22:26:17.471Z,34.26
2023-05-11T22:28:52.363Z,34.33
2023-05-11T22:31:26.803Z,34.16
2023-05-11T22:34:00.314Z,34.13
2023-05-11T22:36:33.199Z,34.35
2023-05-11T22:39:06.675Z,34.36
2023-05-11T22:41:39.681Z,34.41
2023-05-11T22:44:13.865Z,34.46
2023-05-11T22:46:46.708Z,34.46
2023-05-11T22:49:19.545Z,34.60
2023-05-11T22:51:52.659Z,34.70
2023-05-11T22:54:26.334Z,34.67
2023-05-11T22:56:59.030Z,34.15
2023-05-11T22:59:34.639Z,34.59
2023-05-11T23:02:07.566Z,34.73
2023-05-11T23:04:40.519Z,34.83
2023-05-11T23:07:13.414Z,34.82
2023-05-11T23:09:46.458Z,34.85
2023-05-11T23:12:19.456Z,34.97
2023-05-11T23:14:53.658Z,35.10
2023-05-11T23:17:26.715Z,35.22
2023-05-11T23:19:59.762Z,35.24
2023-05-11T23:22:32.762Z,35.40
2023-05-11T23:25:06.082Z,35.52
2023-05-11T23:27:38.971Z,35.45
2023-05-11T23:30:13.843Z,35.68
2023-05-11T23:32:46.792Z,35.59
2023-05-11T23:35:19.674Z,35.70
2023-05-11T23:37:52.542Z,35.65
2023-05-11T23:40:26.149Z,35.81
2023-05-11T23:42:59.228Z,35.91
2023-05-11T23:45:33.548Z,36.08
2023-05-11T23:48:07.365Z,36.13
2023-05-11T23:50:40.268Z,36.21
2023-05-11T23:53:13.253Z,36.09
2023-05-11T23:55:47.991Z,36.17
2023-05-11T23:58:20.847Z,36.21
